地図

経路データ

SID SEASON NUMBER BASIN SUBBASIN NAME ISO_TIME NATURE LAT LON WMO_WIND WMO_PRES WMO_AGENCY TRACK_TYPE DIST2LAND LANDFALL IFLAG USA_AGENCY USA_ATCF_ID USA_LAT USA_LON USA_RECORD USA_STATUS USA_WIND USA_PRES USA_SSHS USA_R34_NE USA_R34_SE USA_R34_SW USA_R34_NW USA_R50_NE USA_R50_SE USA_R50_SW USA_R50_NW USA_R64_NE USA_R64_SE USA_R64_SW USA_R64_NW USA_POCI USA_ROCI USA_RMW USA_EYE TOKYO_LAT TOKYO_LON TOKYO_GRADE TOKYO_WIND TOKYO_PRES TOKYO_R50_DIR TOKYO_R50_LONG TOKYO_R50_SHORT TOKYO_R30_DIR TOKYO_R30_LONG TOKYO_R30_SHORT TOKYO_LAND CMA_LAT CMA_LON CMA_CAT CMA_WIND CMA_PRES HKO_LAT HKO_LON HKO_CAT HKO_WIND HKO_PRES NEWDELHI_LAT NEWDELHI_LON NEWDELHI_GRADE NEWDELHI_WIND NEWDELHI_PRES NEWDELHI_CI NEWDELHI_DP NEWDELHI_POCI REUNION_LAT REUNION_LON REUNION_TYPE REUNION_WIND REUNION_PRES REUNION_TNUM REUNION_CI REUNION_RMW REUNION_R34_NE REUNION_R34_SE REUNION_R34_SW REUNION_R34_NW REUNION_R50_NE REUNION_R50_SE REUNION_R50_SW REUNION_R50_NW REUNION_R64_NE REUNION_R64_SE REUNION_R64_SW REUNION_R64_NW BOM_LAT BOM_LON BOM_TYPE BOM_WIND BOM_PRES BOM_TNUM BOM_CI BOM_RMW BOM_R34_NE BOM_R34_SE BOM_R34_SW BOM_R34_NW BOM_R50_NE BOM_R50_SE BOM_R50_SW BOM_R50_NW BOM_R64_NE BOM_R64_SE BOM_R64_SW BOM_R64_NW BOM_ROCI BOM_POCI BOM_EYE BOM_POS_METHOD BOM_PRES_METHOD NADI_LAT NADI_LON NADI_CAT NADI_WIND NADI_PRES WELLINGTON_LAT WELLINGTON_LON WELLINGTON_WIND WELLINGTON_PRES DS824_LAT DS824_LON DS824_STAGE DS824_WIND DS824_PRES TD9636_LAT TD9636_LON TD9636_STAGE TD9636_WIND TD9636_PRES TD9635_LAT TD9635_LON TD9635_WIND TD9635_PRES TD9635_ROCI NEUMANN_LAT NEUMANN_LON NEUMANN_CLASS NEUMANN_WIND NEUMANN_PRES MLC_LAT MLC_LON MLC_CLASS MLC_WIND MLC_PRES USA_GUST BOM_GUST BOM_GUST_PER REUNION_GUST REUNION_GUST_PER USA_SEAHGT USA_SEARAD_NE USA_SEARAD_SE USA_SEARAD_SW USA_SEARAD_NW STORM_SPEED STORM_DIR
1931343N05081 1931 59 NI BB NOT_NAMED 1931-12-09 00:00:00 TS 5.30000 80.7000 main 68 44 _________O____ -1 5.30000 80.7000 TC 30 4 336
1931343N05081 1931 59 NI BB NOT_NAMED 1931-12-09 03:00:00 TS 5.49833 80.6117 main 44 15 _________PO___ -1 5.59750 80.5675 TC 30 5.30000 80.7000 1 6 333
1931343N05081 1931 59 NI BB NOT_NAMED 1931-12-09 06:00:00 TS 5.78693 80.4444 main 22 0 _________OP___ -1 5.90000 80.4000 TC 30 5.61732 80.5111 1 7 327
1931343N05081 1931 59 NI BB NOT_NAMED 1931-12-09 09:00:00 TS 6.08758 80.2347 main 0 0 _________PP___ -1 6.20749 80.1725 TC 30 5.92770 80.3176 1 7 323
1931343N05081 1931 59 NI BB NOT_NAMED 1931-12-09 12:00:00 TS 6.36212 80.0077 main 11 11 _________OP___ -1 6.50000 79.9000 TC 30 6.22423 80.1154 1 7 319
1931343N05081 1931 59 NI BB NOT_NAMED 1931-12-09 15:00:00 TS 6.63999 79.7575 main 22 22 _________PO___ -1 6.77998 79.6150 TC 30 6.50000 79.9000 1 7 314
1931343N05081 1931 59 NI BB NOT_NAMED 1931-12-09 18:00:00 TS 6.87360 79.4819 main 44 44 _________OP___ -1 7.00000 79.3000 TC 30 6.74720 79.6638 1 7 306
1931343N05081 1931 59 NI BB NOT_NAMED 1931-12-09 21:00:00 TS 7.04592 79.1938 main 77 77 _________PP___ -1 7.13735 79.0025 TC 30 6.95448 79.3851 1 7 293
1931343N05081 1931 59 NI BB NOT_NAMED 1931-12-10 00:00:00 TS 7.15477 78.8194 main 119 119 _________OP___ -1 7.20000 78.6000 TC 30 7.10954 79.0388 1 9 281
1931343N05081 1931 59 NI BB NOT_NAMED 1931-12-10 03:00:00 TS 7.21503 78.2975 main 130 103 _________PO___ -1 7.23007 77.9950 TC 30 7.20000 78.6000 1 11 272
1931343N05081 1931 59 NI AS NOT_NAMED 1931-12-10 06:00:00 TS 7.19528 77.6714 main 103 100 _________OP___ -1 7.20000 77.3000 TC 30 7.19055 78.0429 1 13 265
1931343N05081 1931 59 NI AS NOT_NAMED 1931-12-10 09:00:00 TS 7.11134 77.0270 main 116 116 _________PP___ -1 7.09988 76.6574 TC 30 7.12281 77.3966 1 13 262
1931343N05081 1931 59 NI AS NOT_NAMED 1931-12-10 12:00:00 TS 7.02180 76.3511 main 158 158 _________OP___ -1 7.00000 76.0000 TC 30 7.04360 76.7021 1 14 264
1931343N05081 1931 59 NI AS NOT_NAMED 1931-12-10 15:00:00 TS 6.97750 75.6462 main 220 220 _________PO___ -1 6.95499 75.2924 TC 30 7.00000 76.0000 1 14 269
1931343N05081 1931 59 NI AS NOT_NAMED 1931-12-10 18:00:00 TS 7.00423 74.9365 main 275 275 _________OP___ -1 7.00000 74.6000 TC 30 7.00845 75.2730 1 14 275
1931343N05081 1931 59 NI AS NOT_NAMED 1931-12-10 21:00:00 TS 7.10653 74.2452 main 323 323 _________PP___ -1 7.14752 73.9326 TC 30 7.06554 74.5577 1 13 283
1931343N05081 1931 59 NI AS NOT_NAMED 1931-12-11 00:00:00 TS 7.29489 73.6568 main 356 356 _________OP___ -1 7.40000 73.4000 TC 30 7.18978 73.9136 1 11 294
1931343N05081 1931 59 NI AS NOT_NAMED 1931-12-11 03:00:00 TS 7.55619 73.2375 main 391 391 _________PO___ -1 7.71238 73.0750 TC 30 7.40000 73.4000 1 9 312
1931343N05081 1931 59 NI AS NOT_NAMED 1931-12-11 06:00:00 TS 7.90051 72.9801 main 400 397 _________OP___ -1 8.10000 72.9000 TC 30 7.70103 73.0601 1 9 331
1931343N05081 1931 59 NI AS NOT_NAMED 1931-12-11 09:00:00 TS 8.31093 72.8088 main 404 395 _________PP___ -1 8.53498 72.7625 TC 30 8.08689 72.8551 1 9 344
1931343N05081 1931 59 NI AS NOT_NAMED 1931-12-11 12:00:00 TS 8.76467 72.7238 main 401 393 _________OP___ -1 9.00000 72.7000 TC 30 8.52934 72.7476 1 9 353
1931343N05081 1931 59 NI AS NOT_NAMED 1931-12-11 15:00:00 TS 9.22125 72.6925 main 393 371 _________PO___ -1 9.44250 72.6849 TC 30 9.00000 72.7000 1 9 357
1931343N05081 1931 59 NI AS NOT_NAMED 1931-12-11 18:00:00 TS 9.69496 72.6747 main 371 339 _________OP___ -1 9.90000 72.7000 TC 30 9.48991 72.6494 1 10 359
1931343N05081 1931 59 NI AS NOT_NAMED 1931-12-11 21:00:00 TS 10.2087 72.6736 main 339 309 _________PP___ -1 10.4225 72.7000 TC 30 9.99491 72.6471 1 10 1
1931343N05081 1931 59 NI AS NOT_NAMED 1931-12-12 00:00:00 TS 10.6887 72.6857 main 309 289 _________OP___ -1 10.9000 72.7000 TC 30 10.4775 72.6713 1 9 2
1931343N05081 1931 59 NI AS NOT_NAMED 1931-12-12 03:00:00 TS 11.0725 72.7000 main 289 279 _________PO___ -1 11.2450 72.7000 TC 30 10.9000 72.7000 1 7 2
1931343N05081 1931 59 NI AS NOT_NAMED 1931-12-12 06:00:00 TS 11.3573 72.7000 main 274 264 _________OP___ -1 11.5000 72.7000 TC 30 11.2146 72.7000 1 5 1
1931343N05081 1931 59 NI AS NOT_NAMED 1931-12-12 09:00:00 TS 11.5912 72.7000 main 264 254 _________PP___ -1 11.7150 72.7000 TC 30 11.4675 72.7000 1 4 0
1931343N05081 1931 59 NI AS NOT_NAMED 1931-12-12 12:00:00 TS 11.7933 72.7000 main 254 245 _________OP___ -1 11.9000 72.7000 TC 30 11.6865 72.7000 1 4 2
1931343N05081 1931 59 NI AS NOT_NAMED 1931-12-12 15:00:00 TS 11.9925 72.7000 main 245 237 _________PO___ -1 12.0850 72.7000 TC 30 11.9000 72.7000 1 4 0
1931343N05081 1931 59 NI AS NOT_NAMED 1931-12-12 18:00:00 TS 12.2291 72.7000 main 237 230 _________OP___ -1 12.3000 72.7000 TC 30 12.1581 72.7000 1 5 0
1931343N05081 1931 59 NI AS NOT_NAMED 1931-12-12 21:00:00 TS 12.5075 72.7000 main 230 223 _________PP___ -1 12.6000 72.7000 TC 30 12.4150 72.7000 1 6 0
1931343N05081 1931 59 NI AS NOT_NAMED 1931-12-13 00:00:00 TS 12.7822 72.7000 main 223 219 _________OP___ -1 12.9000 72.7000 TC 30 12.6644 72.7000 1 5 2
1931343N05081 1931 59 NI AS NOT_NAMED 1931-12-13 03:00:00 TS 13.0075 72.7000 main 219 216 _________PO___ -1 13.1150 72.7000 TC 30 12.9000 72.7000 1 4 0
1931343N05081 1931 59 NI AS NOT_NAMED 1931-12-13 06:00:00 TS 13.2072 72.7020 main 216 209 _________OP___ -1 13.3000 72.7000 TC 30 13.1144 72.7040 1 4 0
1931343N05081 1931 59 NI AS NOT_NAMED 1931-12-13 09:00:00 TS 13.4075 72.7037 main 209 199 _________PP___ -1 13.5000 72.7000 TC 30 13.3150 72.7075 1 4 4
1931343N05081 1931 59 NI AS NOT_NAMED 1931-12-13 12:00:00 TS 13.6041 72.7036 main 199 187 _________OP___ -1 13.7000 72.7000 TC 30 13.5081 72.7072 1 4 0
1931343N05081 1931 59 NI AS NOT_NAMED 1931-12-13 15:00:00 TS 13.8000 72.7037 main 187 175 _________PO___ -1 13.9000 72.7075 TC 30 13.7000 72.7000 1 4 358
1931343N05081 1931 59 NI AS NOT_NAMED 1931-12-13 18:00:00 TS 13.9832 72.6907 main 175 163 _________OP___ -1 14.1000 72.7000 TC 30 13.8956 72.6838 1 4 353
1931343N05081 1931 59 NI AS NOT_NAMED 1931-12-13 21:00:00 TS 14.1770 72.6601 main 163 160 _________PP___ -1 14.3000 72.6600 TC 30 14.0950 72.6601 1 4 350
1931343N05081 1931 59 NI AS NOT_NAMED 1931-12-14 00:00:00 TS 14.3646 72.6209 main 160 155 _________OP___ -1 14.5000 72.6000 TC 30 14.2969 72.6313 1 3 349
1931343N05081 1931 59 NI AS NOT_NAMED 1931-12-14 03:00:00 NR 14.5000 72.6000 main 155 __________O___ -1 TC 14.5000 72.6000 1 3 351

IBTrACS Databaseについて

本データベースは、米国NOAAが公開する1842年以降の世界の熱帯低気圧のベストトラックデータアーカイブInternational Best Track Archive for Climate Stewardship (IBTrACS)を、ウェブで閲覧しやすい形式に変換したものです。

最終更新日:2021-10-27